»·PEaware :: UPS2082 KSAN-KSLC

UPS2082 :: KSAN-KSLC

FLIGHT INFORMATION

Flight Status: Arrived
Operator:
United Parcel Service
More flights by this operator :: More flights under this callsign
Pilot: Will K. (13011)
Aircraft: Unknown
(B748)
More flights by this aircraft type
Origin: KSAN San Diego Intl-Lindbergh
United States
Destination: KSLC Salt Lake City Intl
United States
More flights between these airports :: More routes between these airports
Route: ZZOOO2 MTBAL AVRRY CADEZ HAKMN Q73 LAKRR MLF QWENN5
File this flight plan on PilotEdge
Remarks:
Altitude:
(Current/Filed)
35,000ft
Speed:
(Current/Filed)
500kts
Departed: 30-Sep-18 03:46 PM
Arrived: 30-Sep-18 05:04 PM
Distance/Time
Traveled:
545nm/1:17
Distance/Time
To Go:
Arrived

Flight Plot

Page will automatically refresh every two minutes.

Flight plan parsing failed; only flown route is shown


Map Options




Map Legend


Flown Route
Filed Route
Departure Airport
Arrival Airport
Navaid (VOR, NDB)
Fix

Horizontal Profiles

Position Reports

Time Latitude Longitude Heading Altitude Ground
Speed
30-Sep-18 15:13 32.736646 -117.185036 354 28ft 0kts
30-Sep-18 15:14 32.736646 -117.185036 354 28ft 0kts
30-Sep-18 15:15 32.736646 -117.185036 354 28ft 0kts
30-Sep-18 15:16 32.736646 -117.185036 354 28ft 0kts
30-Sep-18 15:17 32.736646 -117.185036 354 28ft 0kts
30-Sep-18 15:18 32.736646 -117.185036 354 28ft 0kts
30-Sep-18 15:19 32.736646 -117.185036 354 28ft 0kts
30-Sep-18 15:20 32.736646 -117.185036 354 28ft 0kts
30-Sep-18 15:21 32.736646 -117.185036 354 28ft 0kts
30-Sep-18 15:22 32.736646 -117.185036 354 28ft 0kts
30-Sep-18 15:23 32.736646 -117.185036 354 28ft 0kts
30-Sep-18 15:24 32.736646 -117.185036 354 28ft 0kts
30-Sep-18 15:25 32.736646 -117.185036 354 28ft 0kts
30-Sep-18 15:26 32.736646 -117.185036 354 28ft 0kts
30-Sep-18 15:27 32.736646 -117.185036 354 28ft 0kts
30-Sep-18 15:28 32.736646 -117.185036 354 28ft 0kts
30-Sep-18 15:29 32.736646 -117.185036 354 28ft 0kts
30-Sep-18 15:30 32.736646 -117.185036 354 28ft 0kts
30-Sep-18 15:31 32.736646 -117.185036 354 28ft 0kts
30-Sep-18 15:32 32.736646 -117.185036 354 28ft 0kts
30-Sep-18 15:33 32.736646 -117.185036 354 28ft 0kts
30-Sep-18 15:34 32.736646 -117.185036 354 28ft 0kts
30-Sep-18 15:35 32.736276 -117.185069 31 28ft 2kts
30-Sep-18 15:36 32.736122 -117.185352 144 28ft 2kts
30-Sep-18 15:37 32.736241 -117.185453 144 28ft 0kts
30-Sep-18 15:38 32.736241 -117.185453 144 28ft 0kts
30-Sep-18 15:39 32.736241 -117.185453 144 28ft 0kts
30-Sep-18 15:40 32.736241 -117.185453 144 28ft 0kts
30-Sep-18 15:41 32.735748 -117.185036 145 28ft 15kts
30-Sep-18 15:42 32.733129 -117.183147 106 28ft 15kts
30-Sep-18 15:43 32.731697 -117.177251 106 28ft 17kts
30-Sep-18 15:44 32.731407 -117.176179 116 28ft 0kts
30-Sep-18 15:45 32.731407 -117.176179 116 28ft 0kts
30-Sep-18 15:46 32.731407 -117.176179 116 28ft 0kts
30-Sep-18 15:47 32.730283 -117.176153 285 28ft 8kts
30-Sep-18 15:48 32.739507 -117.213756 285 736ft 177kts
30-Sep-18 15:49 32.752015 -117.265688 285 2037ft 226kts
30-Sep-18 15:50 32.707340 -117.327965 180 4351ft 272kts
30-Sep-18 15:51 32.657205 -117.283556 129 6870ft 287kts
30-Sep-18 15:52 32.625592 -117.195595 99 9753ft 307kts
30-Sep-18 15:53 32.615245 -117.063166 98 11436ft 385kts
30-Sep-18 15:54 32.605367 -116.954874 98 13789ft 406kts
30-Sep-18 15:55 32.622269 -116.819214 67 16591ft 435kts
30-Sep-18 15:56 32.716365 -116.729327 23 19228ft 454kts
30-Sep-18 15:57 32.835743 -116.672803 20 21565ft 475kts
30-Sep-18 15:58 32.960375 -116.611596 20 23658ft 495kts
30-Sep-18 15:59 33.089832 -116.545541 22 25704ft 513kts
30-Sep-18 16:00 33.222697 -116.476087 21 27515ft 531kts
30-Sep-18 16:01 33.360146 -116.403310 25 29000ft 548kts
30-Sep-18 16:02 33.466990 -116.273684 54 30669ft 552kts
30-Sep-18 16:03 33.555503 -116.122634 55 32078ft 555kts
30-Sep-18 16:04 33.630526 -115.961623 71 33268ft 553kts
30-Sep-18 16:05 33.684046 -115.788181 72 34352ft 554kts
30-Sep-18 16:06 33.742258 -115.617090 57 34813ft 559kts
30-Sep-18 16:07 33.866927 -115.510602 20 34859ft 553kts
30-Sep-18 16:08 34.009156 -115.442290 18 34874ft 550kts
30-Sep-18 16:09 34.150415 -115.371196 18 34882ft 552kts
30-Sep-18 16:10 34.297076 -115.323020 3 34883ft 541kts
30-Sep-18 16:11 34.445124 -115.295017 3 34898ft 540kts
30-Sep-18 16:12 34.593968 -115.265352 3 34891ft 540kts
30-Sep-18 16:13 34.742243 -115.235579 4 34884ft 540kts
30-Sep-18 16:14 34.890085 -115.205721 4 34859ft 540kts
30-Sep-18 16:15 35.038574 -115.175618 4 34849ft 539kts
30-Sep-18 16:16 35.186199 -115.145582 4 34855ft 539kts
30-Sep-18 16:17 35.334201 -115.115402 4 34866ft 538kts
30-Sep-18 16:18 35.481701 -115.079866 18 34879ft 544kts
30-Sep-18 16:19 35.597440 -114.959601 49 34886ft 558kts
30-Sep-18 16:20 35.700905 -114.816021 47 34873ft 560kts
30-Sep-18 16:21 35.804884 -114.673147 47 34875ft 560kts
30-Sep-18 16:22 35.909013 -114.530473 47 34885ft 560kts
30-Sep-18 16:23 36.012843 -114.386844 47 34888ft 561kts
30-Sep-18 16:24 36.130146 -114.262478 25 34896ft 557kts
30-Sep-18 16:25 36.270736 -114.184396 19 34920ft 552kts
30-Sep-18 16:26 36.411270 -114.108278 19 34928ft 552kts
30-Sep-18 16:27 36.551752 -114.031787 19 34930ft 555kts
30-Sep-18 16:28 36.692743 -113.954344 19 34922ft 554kts
30-Sep-18 16:29 36.833779 -113.876520 19 34934ft 553kts
30-Sep-18 16:30 36.974520 -113.798541 19 34933ft 552kts
30-Sep-18 16:31 37.114940 -113.720424 18 34934ft 551kts
30-Sep-18 16:32 37.254821 -113.642293 19 34937ft 550kts
30-Sep-18 16:33 37.394343 -113.564041 18 34985ft 550kts
30-Sep-18 16:34 37.534094 -113.485334 19 35036ft 551kts
30-Sep-18 16:35 37.673877 -113.406286 19 35068ft 550kts
30-Sep-18 16:36 37.813820 -113.326817 19 35073ft 550kts
30-Sep-18 16:37 37.953133 -113.247378 19 35066ft 549kts
30-Sep-18 16:38 38.092576 -113.167671 18 35049ft 550kts
30-Sep-18 16:39 38.231856 -113.087555 18 35033ft 549kts
30-Sep-18 16:40 38.371159 -113.007158 17 35021ft 550kts
30-Sep-18 16:41 38.511979 -112.932357 16 35021ft 547kts
30-Sep-18 16:42 38.652137 -112.857725 16 34899ft 538kts
30-Sep-18 16:43 38.785349 -112.786036 16 32974ft 505kts
30-Sep-18 16:44 38.912730 -112.717289 16 30682ft 485kts
30-Sep-18 16:45 39.035634 -112.650875 16 28979ft 474kts
30-Sep-18 16:46 39.155797 -112.585607 17 27273ft 462kts
30-Sep-18 16:47 39.272775 -112.521688 17 25587ft 452kts
30-Sep-18 16:48 39.387018 -112.457259 18 23913ft 442kts
30-Sep-18 16:49 39.497678 -112.393531 18 22273ft 430kts
30-Sep-18 16:50 39.605688 -112.331165 19 20649ft 418kts
30-Sep-18 16:51 39.710500 -112.270728 19 19048ft 407kts
30-Sep-18 16:52 39.812510 -112.211509 20 17533ft 394kts
30-Sep-18 16:53 39.911566 -112.153697 20 15971ft 386kts
30-Sep-18 16:54 40.008368 -112.096658 21 15084ft 375kts
30-Sep-18 16:55 40.103002 -112.039459 21 13712ft 372kts
30-Sep-18 16:56 40.195621 -111.983209 22 12259ft 363kts
30-Sep-18 16:57 40.287534 -111.936122 4 11095ft 351kts
30-Sep-18 16:58 40.377964 -111.929525 359 11033ft 304kts
30-Sep-18 16:59 40.456927 -111.935929 348 10319ft 286kts
30-Sep-18 17:00 40.532801 -111.945107 349 8874ft 260kts
30-Sep-18 17:01 40.600066 -111.952865 349 7603ft 233kts
30-Sep-18 17:02 40.657618 -111.959504 349 6531ft 184kts
30-Sep-18 17:03 40.708348 -111.965367 350 5552ft 176kts
30-Sep-18 17:04 40.753884 -111.970792 352 4654ft 155kts
30-Sep-18 17:05 40.792710 -111.975229 354 4240ft 48kts
30-Sep-18 17:06 40.795872 -111.977220 322 4240ft 18kts
30-Sep-18 17:07 40.801235 -111.980558 351 4240ft 21kts
30-Sep-18 17:08 40.802420 -111.982189 344 4240ft 0kts
30-Sep-18 17:09 40.802420 -111.982189 344 4240ft 0kts
30-Sep-18 17:10 40.802420 -111.982189 344 4240ft 0kts
30-Sep-18 17:11 40.802420 -111.982189 344 4240ft 0kts
30-Sep-18 17:12 40.802420 -111.982189 344 4240ft 0kts
30-Sep-18 17:13 40.802420 -111.982189 344 4240ft 0kts

Navigation Log

Ident Type
Flight plan parsing failed, navigation log unavailable